createdAt,value
2019-04-03T00:00:19.864Z,0.00
2019-04-03T00:02:13.217Z,0.00
2019-04-03T00:03:13.030Z,0.00
2019-04-03T00:05:06.412Z,0.00
2019-04-03T00:06:06.251Z,0.00
2019-04-03T00:08:16.734Z,0.00
2019-04-03T00:09:16.761Z,0.00
2019-04-03T00:11:10.071Z,0.00
2019-04-03T00:12:10.464Z,0.00
2019-04-03T00:14:03.116Z,0.00
2019-04-03T00:15:03.164Z,0.00
2019-04-03T00:16:56.309Z,0.00
2019-04-03T00:17:56.290Z,0.00
2019-04-03T00:19:49.494Z,0.00
2019-04-03T00:20:49.547Z,0.00
2019-04-03T00:22:42.641Z,0.00
2019-04-03T00:23:42.647Z,0.00
2019-04-03T00:50:17.197Z,0.00
2019-04-03T00:51:17.237Z,0.00
2019-04-03T00:53:10.377Z,0.00
2019-04-03T00:54:10.381Z,0.00
2019-04-03T00:56:03.607Z,0.00
2019-04-03T00:57:03.544Z,0.00
2019-04-03T00:58:56.704Z,0.00
2019-04-03T00:59:56.987Z,0.00
2019-04-03T01:01:50.001Z,0.00
2019-04-03T01:02:49.870Z,0.00
2019-04-03T01:04:43.018Z,0.00
2019-04-03T01:05:43.021Z,0.00
2019-04-03T01:07:36.367Z,0.00
2019-04-03T01:08:36.185Z,0.00
2019-04-03T01:10:29.619Z,0.00
2019-04-03T01:11:30.776Z,0.00
2019-04-03T01:13:22.501Z,0.00
2019-04-03T01:14:22.500Z,0.00
2019-04-03T01:16:15.647Z,0.00
2019-04-03T01:17:15.760Z,0.00
2019-04-03T01:19:08.840Z,0.00
2019-04-03T01:20:08.889Z,0.00
2019-04-03T01:22:02.012Z,0.00
2019-04-03T01:23:02.027Z,0.00
2019-04-03T01:24:55.173Z,0.00
2019-04-03T01:25:55.181Z,0.00
2019-04-03T01:27:48.464Z,0.00
2019-04-03T01:28:48.384Z,0.00
2019-04-03T01:30:42.544Z,0.00
2019-04-03T01:31:44.343Z,0.00
2019-04-03T01:33:34.731Z,0.00
2019-04-03T01:34:34.812Z,0.00
2019-04-03T01:36:28.072Z,0.00
2019-04-03T01:37:27.894Z,0.00
2019-04-03T01:39:21.306Z,0.00
2019-04-03T01:40:21.264Z,0.00
2019-04-03T01:42:14.216Z,0.00
2019-04-03T01:43:14.238Z,0.00
2019-04-03T01:45:07.392Z,0.00
2019-04-03T01:46:07.408Z,0.00
2019-04-03T01:48:00.562Z,0.00
2019-04-03T01:49:00.561Z,0.00
2019-04-03T01:51:08.128Z,0.00
2019-04-03T01:52:08.175Z,0.00
2019-04-03T01:54:02.870Z,0.00
2019-04-03T01:55:03.408Z,0.00
2019-04-03T01:56:54.627Z,0.00
2019-04-03T01:57:54.457Z,0.00
2019-04-03T01:59:47.635Z,0.00
2019-04-03T02:00:47.879Z,0.00
2019-04-03T02:02:40.818Z,0.00
2019-04-03T02:03:41.682Z,0.00
2019-04-03T02:05:34.022Z,0.00
2019-04-03T02:06:34.037Z,0.00
2019-04-03T02:08:27.196Z,0.00
2019-04-03T02:09:27.210Z,0.00
2019-04-03T02:11:20.547Z,0.00
2019-04-03T02:12:20.521Z,0.00
2019-04-03T02:14:13.588Z,0.00
2019-04-03T02:15:13.577Z,0.00
2019-04-03T02:17:06.859Z,0.00
2019-04-03T02:18:06.739Z,0.00
2019-04-03T02:20:00.056Z,0.00
2019-04-03T02:20:59.907Z,0.00
2019-04-03T02:22:53.081Z,0.00
2019-04-03T02:23:53.078Z,0.00
2019-04-03T02:25:46.265Z,0.00
2019-04-03T02:26:46.273Z,0.00
2019-04-03T02:28:39.555Z,0.00
2019-04-03T02:29:39.753Z,0.00
2019-04-03T02:31:32.637Z,0.00
2019-04-03T02:32:32.642Z,0.00
2019-04-03T02:34:25.778Z,0.00
2019-04-03T02:35:25.842Z,0.00
2019-04-03T02:37:18.960Z,0.00
2019-04-03T02:38:21.413Z,0.00
2019-04-03T02:40:12.153Z,0.00
2019-04-03T02:41:12.400Z,0.00
2019-04-03T02:43:05.698Z,0.00
2019-04-03T02:44:05.443Z,0.00
2019-04-03T02:45:58.524Z,0.00
2019-04-03T02:47:01.004Z,0.00
2019-04-03T02:48:51.744Z,0.00
2019-04-03T02:49:51.756Z,0.00
2019-04-03T02:51:45.063Z,0.00
2019-04-03T02:52:45.059Z,0.00
2019-04-03T02:54:38.203Z,0.00
2019-04-03T02:55:39.783Z,0.00
2019-04-03T02:57:31.368Z,0.00
2019-04-03T02:58:31.476Z,0.00
2019-04-03T03:00:24.524Z,0.00
2019-04-03T03:01:24.535Z,0.00
2019-04-03T03:03:18.540Z,0.00
2019-04-03T03:04:20.463Z,0.00
2019-04-03T03:06:10.855Z,0.00
2019-04-03T03:07:11.160Z,0.00
2019-04-03T03:09:04.237Z,0.00
2019-04-03T03:10:04.022Z,0.00
2019-04-03T03:11:57.357Z,0.00
2019-04-03T03:12:59.729Z,0.00
2019-04-03T03:14:50.360Z,0.00
2019-04-03T03:15:50.364Z,0.00
2019-04-03T03:17:43.524Z,0.00
2019-04-03T03:18:43.547Z,0.00
2019-04-03T03:20:39.930Z,0.00
2019-04-03T03:21:36.950Z,0.00
2019-04-03T03:23:47.166Z,0.00
2019-04-03T03:24:47.445Z,0.00
2019-04-03T03:26:40.339Z,0.00
2019-04-03T03:27:42.287Z,0.00
2019-04-03T03:29:33.499Z,0.00
2019-04-03T03:30:44.228Z,0.00
2019-04-03T03:32:32.734Z,0.00
2019-04-03T03:33:35.651Z,0.00
2019-04-03T03:35:27.826Z,0.00
2019-04-03T03:36:24.445Z,0.00
2019-04-03T03:38:13.074Z,0.00
2019-04-03T03:39:13.080Z,0.00
2019-04-03T03:41:06.248Z,0.00
2019-04-03T03:42:06.268Z,0.00
2019-04-03T03:43:59.448Z,0.00
2019-04-03T03:44:59.424Z,0.00
2019-04-03T03:46:52.953Z,0.00
2019-04-03T03:47:52.601Z,0.00
2019-04-03T03:49:48.391Z,0.00
2019-04-03T03:50:45.746Z,0.00
2019-04-03T03:52:39.198Z,0.00
2019-04-03T03:53:38.927Z,0.00
2019-04-03T03:55:32.043Z,0.00
2019-04-03T03:56:32.708Z,0.00
2019-04-03T03:58:25.490Z,0.00
2019-04-03T03:59:25.256Z,0.00
2019-04-03T04:01:18.784Z,0.00
2019-04-03T04:02:18.403Z,0.00
2019-04-03T04:04:14.280Z,0.00
2019-04-03T04:05:12.292Z,0.00
2019-04-03T04:07:05.112Z,0.00
2019-04-03T04:08:09.185Z,0.00
2019-04-03T04:09:57.985Z,0.00
2019-04-03T04:10:59.601Z,0.00
2019-04-03T04:12:51.087Z,0.00
2019-04-03T04:13:51.112Z,0.00
2019-04-03T04:15:44.230Z,0.00
2019-04-03T04:16:44.354Z,0.00
2019-04-03T04:18:37.411Z,4.00
2019-04-03T04:19:37.415Z,4.00
2019-04-03T04:21:30.586Z,0.00
2019-04-03T04:22:30.592Z,0.00
2019-04-03T04:24:23.771Z,4.00
2019-04-03T04:25:23.775Z,0.00
2019-04-03T04:27:16.969Z,4.00
2019-04-03T04:28:17.044Z,4.00
2019-04-03T04:30:11.959Z,4.00
2019-04-03T04:31:12.257Z,4.00
2019-04-03T04:33:03.311Z,8.00
2019-04-03T04:34:03.315Z,8.00
2019-04-03T04:35:56.470Z,12.00
2019-04-03T04:36:56.479Z,12.00
2019-04-03T04:38:49.654Z,16.00
2019-04-03T04:39:49.655Z,16.00
2019-04-03T04:41:42.874Z,20.00
2019-04-03T04:42:42.891Z,20.00
2019-04-03T04:44:36.047Z,24.00
2019-04-03T04:45:36.054Z,24.00
2019-04-03T04:47:29.225Z,28.00
2019-04-03T04:48:29.234Z,28.00
2019-04-03T04:50:24.162Z,32.00
2019-04-03T04:51:25.327Z,36.00
2019-04-03T04:53:15.604Z,40.00
2019-04-03T04:54:15.590Z,44.00
2019-04-03T04:56:08.763Z,48.00
2019-04-03T04:57:09.476Z,52.00
2019-04-03T04:59:01.918Z,60.00
2019-04-03T05:00:01.975Z,64.00
2019-04-03T05:01:55.064Z,72.00
2019-04-03T05:02:55.094Z,76.00
2019-04-03T05:04:48.227Z,80.00
2019-04-03T05:05:48.244Z,84.00
2019-04-03T05:07:41.406Z,88.00
2019-04-03T05:08:41.415Z,96.00
2019-04-03T05:10:34.944Z,100.00
2019-04-03T05:11:34.577Z,100.00
2019-04-03T05:13:27.908Z,108.00
2019-04-03T05:14:27.866Z,108.00
2019-04-03T05:16:24.440Z,116.00
2019-04-03T05:17:20.917Z,116.00
2019-04-03T05:19:18.740Z,124.00
2019-04-03T05:20:14.254Z,132.00
2019-04-03T05:22:07.300Z,144.00
2019-04-03T05:23:07.305Z,144.00
2019-04-03T05:25:00.724Z,160.00
2019-04-03T05:26:01.930Z,168.00
2019-04-03T05:27:53.656Z,176.00
2019-04-03T05:28:57.458Z,184.00
2019-04-03T05:30:46.830Z,192.00
2019-04-03T05:31:46.827Z,196.00
2019-04-03T05:33:42.197Z,208.00
2019-04-03T05:34:39.975Z,212.00
2019-04-03T05:36:33.244Z,220.00
2019-04-03T05:37:33.254Z,228.00
2019-04-03T05:39:26.395Z,240.00
2019-04-03T05:40:26.712Z,248.00
2019-04-03T05:42:19.566Z,260.00
2019-04-03T05:43:19.565Z,268.00
2019-04-03T05:45:12.813Z,280.00
2019-04-03T05:46:12.723Z,288.00
2019-04-03T05:48:06.847Z,296.00
2019-04-03T05:49:05.940Z,300.00
2019-04-03T05:50:59.081Z,312.00
2019-04-03T05:51:59.254Z,320.00
2019-04-03T05:53:53.815Z,332.00
2019-04-03T05:54:52.280Z,336.00
2019-04-03T05:56:45.430Z,348.00
2019-04-03T05:57:46.171Z,352.00
2019-04-03T05:59:38.606Z,356.00
2019-04-03T06:00:38.816Z,364.00
2019-04-03T06:02:49.155Z,372.00
2019-04-03T06:03:49.164Z,372.00
2019-04-03T06:05:43.948Z,380.00
2019-04-03T06:06:42.626Z,384.00
2019-04-03T06:08:35.491Z,376.00
2019-04-03T06:09:35.480Z,372.00
2019-04-03T06:11:28.671Z,372.00
2019-04-03T06:12:28.641Z,372.00
2019-04-03T06:14:23.604Z,388.00
2019-04-03T06:15:22.687Z,396.00
2019-04-03T06:17:15.028Z,420.00
2019-04-03T06:18:17.408Z,432.00
2019-04-03T06:20:36.885Z,452.00
2019-04-03T06:21:37.133Z,480.00
2019-04-03T06:23:30.163Z,512.00
2019-04-03T06:24:30.316Z,532.00
2019-04-03T06:27:23.257Z,568.00
2019-04-03T06:29:18.443Z,584.00
2019-04-03T06:30:16.405Z,584.00
2019-04-03T06:32:09.537Z,596.00
2019-04-03T06:33:09.559Z,600.00
2019-04-03T06:35:02.713Z,612.00
2019-04-03T06:36:02.874Z,596.00
2019-04-03T06:37:55.886Z,588.00
2019-04-03T06:38:57.035Z,596.00
2019-04-03T06:40:49.135Z,620.00
2019-04-03T06:41:49.113Z,632.00
2019-04-03T06:43:42.565Z,652.00
2019-04-03T06:44:42.291Z,676.00
2019-04-03T06:46:35.598Z,708.00
2019-04-03T06:47:35.752Z,712.00
2019-04-03T06:49:28.834Z,724.00
2019-04-03T06:50:28.679Z,732.00
2019-04-03T06:52:36.347Z,724.00
2019-04-03T06:53:36.157Z,720.00
2019-04-03T06:55:29.325Z,756.00
2019-04-03T06:56:29.326Z,760.00
2019-04-03T06:58:22.681Z,812.00
2019-04-03T06:59:22.590Z,820.00
2019-04-03T07:01:15.659Z,832.00
2019-04-03T07:02:15.729Z,840.00
2019-04-03T07:04:09.255Z,832.00
2019-04-03T07:05:10.301Z,828.00
2019-04-03T07:07:02.220Z,828.00
2019-04-03T07:08:04.733Z,840.00
2019-04-03T07:09:55.156Z,868.00
2019-04-03T07:10:55.568Z,880.00
2019-04-03T07:12:48.648Z,912.00
2019-04-03T07:13:48.328Z,936.00
2019-04-03T07:15:58.804Z,976.00
2019-04-03T07:17:01.061Z,992.00
2019-04-03T07:18:51.999Z,1024.00
2019-04-03T07:19:52.012Z,1056.00
2019-04-03T07:21:59.522Z,1108.00
2019-04-03T07:22:59.536Z,1132.00
2019-04-03T07:25:07.014Z,1156.00
2019-04-03T07:26:07.002Z,1164.00
2019-04-03T07:28:00.168Z,1192.00
2019-04-03T07:29:00.189Z,1200.00
2019-04-03T07:30:53.992Z,1216.00
2019-04-03T07:31:55.248Z,1224.00
2019-04-03T07:33:46.490Z,1248.00
2019-04-03T07:34:46.549Z,1256.00
2019-04-03T07:36:41.419Z,1268.00
2019-04-03T07:37:39.665Z,1280.00
2019-04-03T07:39:32.827Z,1288.00
2019-04-03T07:40:32.832Z,1272.00
2019-04-03T07:42:26.060Z,1296.00
2019-04-03T07:43:26.858Z,1260.00
2019-04-03T07:45:19.248Z,1276.00
2019-04-03T07:46:19.254Z,1300.00
2019-04-03T07:48:12.434Z,1352.00
2019-04-03T07:49:13.881Z,1368.00
2019-04-03T07:51:05.655Z,1392.00
2019-04-03T07:52:05.725Z,1412.00
2019-04-03T07:53:58.794Z,1436.00
2019-04-03T07:54:58.815Z,1460.00
2019-04-03T07:56:52.108Z,1516.00
2019-04-03T07:57:51.999Z,1564.00
2019-04-03T07:59:45.174Z,1608.00
2019-04-03T08:00:45.345Z,1612.00
2019-04-03T08:02:38.387Z,1596.00
2019-04-03T08:03:38.395Z,1636.00
2019-04-03T08:05:31.697Z,1700.00
2019-04-03T08:06:34.465Z,1724.00
2019-04-03T08:08:24.765Z,1772.00
2019-04-03T08:09:24.731Z,1772.00
2019-04-03T08:11:17.917Z,1552.00
2019-04-03T08:12:18.506Z,1464.00
2019-04-03T08:14:11.128Z,1592.00
2019-04-03T08:15:13.251Z,1788.00
2019-04-03T08:17:04.457Z,1924.00
2019-04-03T08:18:04.255Z,2020.00
2019-04-03T08:20:09.296Z,2116.00
2019-04-03T08:21:09.427Z,2172.00
2019-04-03T08:23:04.707Z,2272.00
2019-04-03T08:24:02.302Z,2276.00
2019-04-03T08:25:55.785Z,2348.00
2019-04-03T08:26:55.678Z,2400.00
2019-04-03T08:28:48.635Z,2488.00
2019-04-03T08:29:48.630Z,2496.00
2019-04-03T08:31:43.662Z,2552.00
2019-04-03T08:32:41.825Z,2612.00
2019-04-03T08:34:34.926Z,2812.00
2019-04-03T08:35:35.886Z,2788.00
2019-04-03T08:37:31.453Z,2832.00
2019-04-03T08:38:28.142Z,2804.00
2019-04-03T08:40:21.621Z,2800.00
2019-04-03T08:41:23.412Z,2788.00
2019-04-03T08:43:14.481Z,2804.00
2019-04-03T08:44:14.491Z,2904.00
2019-04-03T08:46:09.627Z,3144.00
2019-04-03T08:47:07.926Z,3068.00
2019-04-03T08:49:00.845Z,3212.00
2019-04-03T08:50:02.387Z,3236.00
2019-04-03T08:52:13.851Z,3268.00
2019-04-03T08:53:11.379Z,3340.00
2019-04-03T08:55:04.551Z,3168.00
2019-04-03T08:56:04.579Z,3272.00
2019-04-03T08:57:57.746Z,3736.00
2019-04-03T08:58:58.386Z,3636.00
2019-04-03T09:00:50.924Z,3572.00
2019-04-03T09:01:50.954Z,3240.00
2019-04-03T09:03:45.838Z,2620.00
2019-04-03T09:04:44.265Z,2984.00
2019-04-03T09:06:37.429Z,2864.00
2019-04-03T09:07:37.324Z,2828.00
2019-04-03T09:09:30.593Z,3004.00
2019-04-03T09:10:32.164Z,3124.00
2019-04-03T09:12:23.718Z,3636.00
2019-04-03T09:13:24.137Z,3904.00
2019-04-03T09:15:16.972Z,3544.00
2019-04-03T09:16:16.918Z,3676.00
2019-04-03T09:18:10.106Z,3688.00
2019-04-03T09:19:10.861Z,3604.00
2019-04-03T09:21:03.292Z,4408.00
2019-04-03T09:22:03.310Z,4688.00
2019-04-03T09:23:57.867Z,3904.00
2019-04-03T09:24:56.535Z,3688.00
2019-04-03T09:26:49.648Z,3384.00
2019-04-03T09:27:50.024Z,3368.00
2019-04-03T09:29:45.130Z,3044.00
2019-04-03T09:30:42.874Z,3024.00
2019-04-03T09:32:37.400Z,3084.00
2019-04-03T09:33:36.072Z,3572.00
2019-04-03T09:35:32.080Z,4616.00
2019-04-03T09:36:29.342Z,4968.00
2019-04-03T09:38:22.515Z,5800.00
2019-04-03T09:39:22.523Z,5748.00
2019-04-03T09:41:18.503Z,6708.00
2019-04-03T09:42:15.738Z,6400.00
2019-04-03T09:44:08.920Z,6104.00
2019-04-03T09:45:09.000Z,5888.00
2019-04-03T09:47:03.442Z,6460.00
2019-04-03T09:48:04.586Z,6216.00
2019-04-03T09:49:55.281Z,6248.00
2019-04-03T09:50:55.327Z,7224.00
2019-04-03T09:52:50.048Z,7988.00
2019-04-03T09:53:48.487Z,7760.00
2019-04-03T09:55:41.647Z,8512.00
2019-04-03T09:56:56.878Z,9980.00
2019-04-03T09:58:35.788Z,10344.00
2019-04-03T09:59:37.422Z,10624.00
2019-04-03T10:01:28.041Z,10808.00
2019-04-03T10:02:28.060Z,10972.00
2019-04-03T10:04:21.539Z,11128.00
2019-04-03T10:05:21.260Z,11308.00
2019-04-03T10:07:14.478Z,11424.00
2019-04-03T10:08:14.701Z,11724.00
2019-04-03T10:10:07.657Z,12128.00
2019-04-03T10:11:08.255Z,11500.00
2019-04-03T10:13:00.912Z,12032.00
2019-04-03T10:14:00.922Z,12064.00
2019-04-03T10:15:54.081Z,12480.00
2019-04-03T10:16:54.116Z,12384.00
2019-04-03T10:18:47.340Z,12704.00
2019-04-03T10:19:47.732Z,13120.00
2019-04-03T10:21:41.030Z,12672.00
2019-04-03T10:22:40.583Z,12736.00
2019-04-03T10:24:33.762Z,11744.00
2019-04-03T10:25:36.523Z,12896.00
2019-04-03T10:27:27.023Z,12960.00
2019-04-03T10:28:27.032Z,11156.00
2019-04-03T10:30:21.540Z,12308.00
2019-04-03T10:31:23.491Z,13056.00
2019-04-03T10:33:13.433Z,13728.00
2019-04-03T10:34:14.702Z,13664.00
2019-04-03T10:36:06.917Z,13120.00
2019-04-03T10:37:07.010Z,13248.00
2019-04-03T10:39:00.193Z,11088.00
2019-04-03T10:40:00.245Z,9440.00
2019-04-03T10:41:53.115Z,12140.00
2019-04-03T10:42:53.141Z,10384.00
2019-04-03T10:44:46.524Z,13600.00
2019-04-03T10:45:46.305Z,13792.00
2019-04-03T10:47:43.235Z,9780.00
2019-04-03T10:48:39.500Z,9292.00
2019-04-03T10:50:32.712Z,10424.00
2019-04-03T10:51:32.903Z,10268.00
2019-04-03T10:53:25.965Z,9232.00
2019-04-03T10:54:25.959Z,8356.00
2019-04-03T10:56:19.128Z,9028.00
2019-04-03T10:57:19.154Z,9104.00
2019-04-03T10:59:13.711Z,10368.00
2019-04-03T11:00:12.399Z,11068.00
2019-04-03T11:02:05.588Z,12592.00
2019-04-03T11:03:05.605Z,11960.00
2019-04-03T11:05:00.534Z,10840.00
2019-04-03T11:05:58.826Z,12248.00
2019-04-03T11:07:52.419Z,12812.00
2019-04-03T11:08:52.102Z,15776.00
2019-04-03T11:10:45.354Z,13188.00
2019-04-03T11:11:45.248Z,14080.00
2019-04-03T11:13:38.480Z,15040.00
2019-04-03T11:14:39.151Z,15776.00
2019-04-03T11:16:31.818Z,15904.00
2019-04-03T11:17:31.826Z,13708.00
2019-04-03T11:19:25.389Z,14016.00
2019-04-03T11:20:25.092Z,13288.00
2019-04-03T11:22:18.295Z,12184.00
2019-04-03T11:23:21.594Z,14240.00
2019-04-03T11:25:14.787Z,14592.00
2019-04-03T11:26:11.694Z,13960.00
2019-04-03T11:28:05.521Z,15808.00
2019-04-03T11:29:05.001Z,16320.00
2019-04-03T11:31:01.151Z,17856.00
2019-04-03T11:31:58.075Z,17632.00
2019-04-03T11:33:51.542Z,17984.00
2019-04-03T11:34:53.615Z,20448.00
2019-04-03T11:36:44.941Z,24640.00
2019-04-03T11:37:44.831Z,23936.00
2019-04-03T11:39:37.966Z,24064.00
2019-04-03T11:40:37.921Z,23168.00
2019-04-03T11:42:31.119Z,22848.00
2019-04-03T11:43:31.970Z,22432.00
2019-04-03T11:45:24.114Z,26112.00
2019-04-03T11:46:24.185Z,26624.00
2019-04-03T11:48:17.887Z,10804.00
2019-04-03T11:49:17.784Z,7052.00
2019-04-03T11:51:10.899Z,17280.00
2019-04-03T11:52:10.833Z,12856.00
2019-04-03T11:54:21.164Z,23104.00
2019-04-03T11:55:21.184Z,24736.00
2019-04-03T11:57:16.408Z,24544.00
2019-04-03T11:58:14.663Z,11280.00
2019-04-03T12:00:07.619Z,3960.00
2019-04-03T12:01:07.708Z,3844.00
2019-04-03T12:03:00.782Z,3372.00
2019-04-03T12:04:00.797Z,3172.00
2019-04-03T12:05:54.029Z,2848.00
2019-04-03T12:06:54.018Z,2592.00
2019-04-03T12:08:47.203Z,2632.00
2019-04-03T12:09:47.214Z,2588.00
2019-04-03T12:11:40.407Z,2544.00
2019-04-03T12:12:42.049Z,2496.00
2019-04-03T12:14:33.795Z,2484.00
2019-04-03T12:15:34.734Z,2452.00
2019-04-03T12:17:29.160Z,2356.00
2019-04-03T12:18:27.330Z,2312.00
2019-04-03T12:20:20.522Z,2264.00
2019-04-03T12:21:20.345Z,2260.00
2019-04-03T12:23:13.397Z,2236.00
2019-04-03T12:24:13.427Z,2180.00
2019-04-03T12:26:06.612Z,2200.00
2019-04-03T12:27:06.617Z,2180.00
2019-04-03T12:28:59.805Z,2168.00
2019-04-03T12:29:59.797Z,2188.00
2019-04-03T12:31:53.358Z,1936.00
2019-04-03T12:32:53.009Z,1816.00
2019-04-03T12:34:46.477Z,1896.00
2019-04-03T12:35:46.245Z,1976.00
2019-04-03T12:37:39.388Z,2008.00
2019-04-03T12:38:39.707Z,1996.00
2019-04-03T12:40:32.900Z,2008.00
2019-04-03T12:41:35.435Z,2072.00
2019-04-03T12:43:25.772Z,1948.00
2019-04-03T12:44:25.860Z,1884.00
2019-04-03T12:46:18.956Z,1848.00
2019-04-03T12:47:19.365Z,1856.00
2019-04-03T12:49:12.143Z,1912.00
2019-04-03T12:50:13.394Z,1872.00
2019-04-03T12:52:05.355Z,1876.00
2019-04-03T12:53:05.362Z,1828.00
2019-04-03T12:54:58.590Z,1696.00
2019-04-03T12:55:58.544Z,1636.00
2019-04-03T12:57:51.861Z,1568.00
2019-04-03T12:58:51.867Z,1556.00
2019-04-03T13:00:46.153Z,1584.00
2019-04-03T13:01:45.073Z,1628.00
2019-04-03T13:03:38.335Z,1700.00
2019-04-03T13:04:38.305Z,1724.00
2019-04-03T13:06:31.485Z,1764.00
2019-04-03T13:07:31.590Z,1764.00
2019-04-03T13:09:24.628Z,1796.00
2019-04-03T13:10:24.664Z,1756.00
2019-04-03T13:12:20.617Z,1684.00
2019-04-03T13:13:18.150Z,1656.00
2019-04-03T13:15:11.431Z,1672.00
2019-04-03T13:16:11.282Z,1704.00
2019-04-03T13:18:04.538Z,1768.00
2019-04-03T13:19:04.195Z,1720.00
2019-04-03T13:20:57.381Z,1696.00
2019-04-03T13:21:57.394Z,1644.00
2019-04-03T13:23:50.877Z,1472.00
2019-04-03T13:24:50.681Z,1388.00
2019-04-03T13:26:43.906Z,1236.00
2019-04-03T13:27:44.067Z,1184.00
2019-04-03T13:29:39.606Z,1172.00
2019-04-03T13:30:36.928Z,1180.00
2019-04-03T13:32:30.451Z,1172.00
2019-04-03T13:33:30.104Z,1176.00
2019-04-03T13:35:23.282Z,1184.00
2019-04-03T13:36:24.470Z,1208.00
2019-04-03T13:38:16.504Z,1244.00
2019-04-03T13:39:16.610Z,1232.00
2019-04-03T13:41:10.258Z,1180.00
2019-04-03T13:42:12.705Z,1160.00
2019-04-03T13:44:03.250Z,1144.00
2019-04-03T13:45:02.956Z,1144.00
2019-04-03T13:46:56.296Z,1148.00
2019-04-03T13:47:56.511Z,1140.00
2019-04-03T13:49:50.008Z,1116.00
2019-04-03T13:50:49.390Z,1096.00
2019-04-03T13:52:56.983Z,1052.00
2019-04-03T13:53:57.449Z,1028.00
2019-04-03T13:55:50.090Z,1004.00
2019-04-03T13:56:52.995Z,996.00
2019-04-03T13:58:43.307Z,984.00
2019-04-03T13:59:43.546Z,980.00
2019-04-03T14:01:37.892Z,976.00
2019-04-03T14:02:36.508Z,984.00
2019-04-03T14:04:30.098Z,1008.00
2019-04-03T14:05:32.951Z,984.00
2019-04-03T14:07:34.572Z,1128.00
2019-04-03T14:08:34.576Z,1192.00
2019-04-03T14:10:27.922Z,1240.00
2019-04-03T14:11:28.447Z,1280.00
2019-04-03T14:13:21.001Z,1276.00
2019-04-03T14:14:21.201Z,1300.00
2019-04-03T14:16:21.651Z,1312.00
2019-04-03T14:17:14.434Z,1304.00
2019-04-03T14:19:07.354Z,1292.00
2019-04-03T14:20:07.584Z,1280.00
2019-04-03T14:22:00.861Z,1264.00
2019-04-03T14:23:02.685Z,1252.00
2019-04-03T14:24:53.965Z,1208.00
2019-04-03T14:26:04.786Z,1200.00
2019-04-03T14:27:46.933Z,1156.00
2019-04-03T14:28:46.940Z,1124.00
2019-04-03T14:30:40.633Z,1100.00
2019-04-03T14:31:40.166Z,1088.00
2019-04-03T14:33:43.559Z,1096.00
2019-04-03T14:34:33.382Z,1096.00
2019-04-03T14:36:27.464Z,1116.00
2019-04-03T14:37:27.272Z,1120.00
2019-04-03T14:39:19.727Z,1144.00
2019-04-03T14:40:20.016Z,1148.00
2019-04-03T14:42:12.983Z,1104.00
2019-04-03T14:43:13.057Z,1104.00
2019-04-03T14:45:20.445Z,1076.00
2019-04-03T14:46:20.452Z,1060.00
2019-04-03T14:48:14.024Z,1024.00
2019-04-03T14:49:13.707Z,1004.00
2019-04-03T14:51:07.881Z,980.00
2019-04-03T14:52:06.923Z,984.00
2019-04-03T14:54:00.107Z,964.00
2019-04-03T14:55:14.820Z,948.00
2019-04-03T14:56:53.481Z,920.00
2019-04-03T14:57:55.477Z,900.00
2019-04-03T14:59:46.433Z,836.00
2019-04-03T15:00:48.533Z,804.00
2019-04-03T15:02:41.036Z,776.00
2019-04-03T15:03:39.660Z,756.00
2019-04-03T15:05:33.036Z,736.00
2019-04-03T15:06:33.348Z,728.00
2019-04-03T15:08:26.023Z,700.00
2019-04-03T15:09:27.033Z,684.00
2019-04-03T15:11:21.240Z,672.00
2019-04-03T15:12:19.235Z,680.00
2019-04-03T15:14:12.433Z,696.00
2019-04-03T15:15:12.732Z,716.00
2019-04-03T15:17:05.929Z,748.00
2019-04-03T15:18:08.577Z,760.00
2019-04-03T15:19:59.132Z,824.00
2019-04-03T15:20:58.780Z,832.00
2019-04-03T15:22:51.969Z,776.00
2019-04-03T15:23:52.007Z,700.00
2019-04-03T15:25:46.796Z,700.00
2019-04-03T15:26:45.170Z,692.00
2019-04-03T15:28:38.387Z,692.00
2019-04-03T15:29:38.870Z,716.00
2019-04-03T15:31:31.536Z,752.00
2019-04-03T15:32:32.006Z,772.00
2019-04-03T15:34:27.225Z,828.00
2019-04-03T15:35:24.718Z,872.00
2019-04-03T15:37:17.886Z,848.00
2019-04-03T15:38:19.207Z,784.00
2019-04-03T15:40:11.482Z,660.00
2019-04-03T15:41:11.349Z,624.00
2019-04-03T15:43:04.282Z,616.00
2019-04-03T15:44:04.290Z,584.00
2019-04-03T15:45:58.102Z,544.00
2019-04-03T15:46:57.621Z,544.00
2019-04-03T15:48:52.538Z,528.00
2019-04-03T15:49:50.987Z,504.00
2019-04-03T15:51:44.212Z,476.00
2019-04-03T15:52:46.087Z,468.00
2019-04-03T15:54:37.021Z,456.00
2019-04-03T15:55:38.645Z,444.00
2019-04-03T15:57:30.181Z,436.00
2019-04-03T15:58:30.368Z,424.00
2019-04-03T16:00:23.595Z,408.00
2019-04-03T16:01:23.430Z,404.00
2019-04-03T16:03:17.686Z,384.00
2019-04-03T16:04:16.619Z,372.00
2019-04-03T16:06:09.775Z,372.00
2019-04-03T16:07:09.784Z,364.00
2019-04-03T16:09:03.255Z,364.00
2019-04-03T16:10:02.961Z,360.00
2019-04-03T16:11:56.222Z,352.00
2019-04-03T16:12:56.746Z,348.00
2019-04-03T16:14:51.146Z,336.00
2019-04-03T16:15:49.320Z,328.00
2019-04-03T16:17:42.509Z,312.00
2019-04-03T16:18:42.529Z,304.00
2019-04-03T16:20:36.118Z,292.00
2019-04-03T16:21:35.764Z,288.00
2019-04-03T16:23:28.939Z,280.00
2019-04-03T16:24:29.162Z,276.00
2019-04-03T16:26:23.895Z,268.00
2019-04-03T16:27:22.245Z,264.00
2019-04-03T16:29:15.463Z,244.00
2019-04-03T16:30:17.291Z,236.00
2019-04-03T16:32:09.049Z,228.00
2019-04-03T16:33:19.398Z,224.00
2019-04-03T16:35:01.895Z,220.00
2019-04-03T16:36:02.111Z,220.00
2019-04-03T16:37:56.660Z,216.00
2019-04-03T16:38:55.113Z,212.00
2019-04-03T16:40:48.289Z,208.00
2019-04-03T16:41:48.488Z,204.00
2019-04-03T16:43:58.819Z,196.00
2019-04-03T16:44:59.154Z,192.00
2019-04-03T16:46:52.049Z,184.00
2019-04-03T16:47:52.064Z,184.00
2019-04-03T16:49:45.237Z,176.00
2019-04-03T16:50:45.255Z,168.00
2019-04-03T16:52:38.890Z,156.00
2019-04-03T16:53:39.405Z,148.00
2019-04-03T16:55:31.651Z,140.00
2019-04-03T16:56:31.647Z,128.00
2019-04-03T16:58:26.460Z,120.00
2019-04-03T16:59:24.883Z,116.00
2019-04-03T17:01:18.101Z,100.00
2019-04-03T17:02:19.185Z,96.00
2019-04-03T17:04:22.974Z,84.00
2019-04-03T17:05:12.095Z,80.00
2019-04-03T17:07:04.557Z,72.00
2019-04-03T17:08:04.561Z,72.00
2019-04-03T17:09:57.818Z,64.00
2019-04-03T17:10:57.816Z,60.00
2019-04-03T17:12:51.075Z,52.00
2019-04-03T17:13:52.354Z,48.00
2019-04-03T17:15:44.310Z,48.00
2019-04-03T17:16:46.041Z,44.00
2019-04-03T17:18:37.464Z,40.00
2019-04-03T17:19:37.485Z,44.00
2019-04-03T17:21:36.959Z,40.00
2019-04-03T17:22:31.044Z,36.00
2019-04-03T17:24:23.818Z,36.00
2019-04-03T17:25:26.962Z,32.00
2019-04-03T17:27:17.004Z,32.00
2019-04-03T17:28:17.016Z,28.00
2019-04-03T17:30:10.352Z,24.00
2019-04-03T17:31:10.210Z,24.00
2019-04-03T17:33:03.429Z,20.00
2019-04-03T17:34:06.363Z,20.00
2019-04-03T17:35:56.564Z,16.00
2019-04-03T17:36:56.787Z,20.00
2019-04-03T17:38:50.274Z,16.00
2019-04-03T17:39:52.243Z,12.00
2019-04-03T17:41:42.970Z,12.00
2019-04-03T17:42:42.945Z,8.00
2019-04-03T17:44:38.309Z,8.00
2019-04-03T17:45:36.148Z,8.00
2019-04-03T17:47:29.312Z,4.00
2019-04-03T17:48:29.316Z,8.00
2019-04-03T17:50:22.531Z,4.00
2019-04-03T17:51:22.553Z,4.00
2019-04-03T17:53:15.730Z,4.00
2019-04-03T17:54:15.745Z,4.00
2019-04-03T17:56:08.905Z,0.00
2019-04-03T17:57:08.906Z,4.00
2019-04-03T17:59:02.121Z,0.00
2019-04-03T18:00:02.120Z,0.00
2019-04-03T18:01:55.271Z,0.00
2019-04-03T18:02:55.283Z,0.00
2019-04-03T18:04:48.907Z,0.00
2019-04-03T18:05:48.464Z,0.00
2019-04-03T18:07:41.628Z,0.00
2019-04-03T18:08:41.636Z,0.00
2019-04-03T18:10:34.797Z,0.00
2019-04-03T18:11:34.807Z,0.00
2019-04-03T18:13:27.985Z,0.00
2019-04-03T18:14:28.048Z,0.00
2019-04-03T18:16:21.165Z,0.00
2019-04-03T18:17:21.188Z,0.00
2019-04-03T18:19:14.339Z,0.00
2019-04-03T18:20:14.347Z,0.00
2019-04-03T18:22:07.504Z,0.00
2019-04-03T18:23:10.486Z,0.00
2019-04-03T18:25:00.730Z,0.00
2019-04-03T18:26:00.817Z,0.00
2019-04-03T18:27:56.269Z,0.00
2019-04-03T18:28:53.923Z,0.00
2019-04-03T18:30:47.067Z,0.00
2019-04-03T18:31:47.095Z,0.00
2019-04-03T18:33:40.271Z,0.00
2019-04-03T18:34:40.277Z,0.00